sensor_id;sensor_type;location;lat;lon;timestamp;pressure;altitude;pressure_sealevel;temperature;humidity
1472;BME280;963;42.644;23.336;2023-04-27T00:01:11;93875.22;;;10.54;49.26
1472;BME280;963;42.644;23.336;2023-04-27T00:03:37;93880.47;;;10.54;48.34
1472;BME280;963;42.644;23.336;2023-04-27T00:06:02;93870.50;;;10.33;48.41
1472;BME280;963;42.644;23.336;2023-04-27T00:08:27;93871.63;;;10.36;48.71
1472;BME280;963;42.644;23.336;2023-04-27T00:10:53;93877.22;;;10.30;48.89
1472;BME280;963;42.644;23.336;2023-04-27T00:13:18;93877.97;;;10.31;48.61
1472;BME280;963;42.644;23.336;2023-04-27T00:15:44;93876.47;;;10.30;48.76
1472;BME280;963;42.644;23.336;2023-04-27T00:18:10;93876.28;;;10.12;49.42
1472;BME280;963;42.644;23.336;2023-04-27T00:20:35;93892.25;;;10.30;48.46
1472;BME280;963;42.644;23.336;2023-04-27T00:23:00;93888.16;;;10.36;48.46
1472;BME280;963;42.644;23.336;2023-04-27T00:25:26;93894.19;;;10.37;48.35
1472;BME280;963;42.644;23.336;2023-04-27T00:27:51;93891.44;;;10.26;48.25
1472;BME280;963;42.644;23.336;2023-04-27T00:30:17;93884.38;;;10.33;48.15
1472;BME280;963;42.644;23.336;2023-04-27T00:32:42;93883.22;;;10.27;48.33
1472;BME280;963;42.644;23.336;2023-04-27T00:35:08;93896.56;;;10.15;48.49
1472;BME280;963;42.644;23.336;2023-04-27T00:37:34;93872.81;;;10.05;48.72
1472;BME280;963;42.644;23.336;2023-04-27T00:39:59;93882.69;;;10.15;48.51
1472;BME280;963;42.644;23.336;2023-04-27T00:42:25;93882.31;;;10.16;48.35
1472;BME280;963;42.644;23.336;2023-04-27T00:44:50;93901.03;;;10.11;48.55
1472;BME280;963;42.644;23.336;2023-04-27T00:47:16;93874.50;;;9.90;48.91
1472;BME280;963;42.644;23.336;2023-04-27T00:49:42;93876.81;;;9.95;48.77
1472;BME280;963;42.644;23.336;2023-04-27T00:52:08;93884.31;;;9.93;48.67
1472;BME280;963;42.644;23.336;2023-04-27T00:54:33;93884.22;;;9.86;48.66
1472;BME280;963;42.644;23.336;2023-04-27T00:56:59;93887.56;;;9.83;49.17
1472;BME280;963;42.644;23.336;2023-04-27T00:59:24;93917.16;;;9.80;49.58
1472;BME280;963;42.644;23.336;2023-04-27T01:01:50;93891.44;;;9.92;49.15
1472;BME280;963;42.644;23.336;2023-04-27T01:04:15;93900.84;;;9.97;49.11
1472;BME280;963;42.644;23.336;2023-04-27T01:06:42;93903.84;;;9.95;48.64
1472;BME280;963;42.644;23.336;2023-04-27T01:09:07;93903.84;;;9.95;48.71
1472;BME280;963;42.644;23.336;2023-04-27T01:11:34;93895.13;;;9.88;48.89
1472;BME280;963;42.644;23.336;2023-04-27T01:14:03;93907.47;;;9.84;48.75
1472;BME280;963;42.644;23.336;2023-04-27T01:16:29;93912.41;;;9.89;48.82
1472;BME280;963;42.644;23.336;2023-04-27T01:18:56;93920.78;;;9.68;49.39
1472;BME280;963;42.644;23.336;2023-04-27T01:21:21;93913.44;;;9.81;49.28
1472;BME280;963;42.644;23.336;2023-04-27T01:23:46;93921.34;;;9.84;48.73
1472;BME280;963;42.644;23.336;2023-04-27T01:26:12;93908.97;;;9.85;48.30
1472;BME280;963;42.644;23.336;2023-04-27T01:28:41;93928.75;;;9.75;48.51
1472;BME280;963;42.644;23.336;2023-04-27T01:31:06;93911.16;;;9.79;48.77
1472;BME280;963;42.644;23.336;2023-04-27T01:33:31;93914.50;;;9.76;48.38
1472;BME280;963;42.644;23.336;2023-04-27T01:35:57;93919.41;;;9.78;48.81
1472;BME280;963;42.644;23.336;2023-04-27T01:38:22;93921.97;;;9.74;48.01
1472;BME280;963;42.644;23.336;2023-04-27T01:40:48;93904.88;;;9.57;48.08
1472;BME280;963;42.644;23.336;2023-04-27T01:43:14;93925.06;;;9.53;48.63
1472;BME280;963;42.644;23.336;2023-04-27T01:45:39;93931.16;;;9.61;48.64
1472;BME280;963;42.644;23.336;2023-04-27T01:48:05;93922.03;;;9.51;48.92
1472;BME280;963;42.644;23.336;2023-04-27T01:50:30;93921.81;;;9.63;48.53
1472;BME280;963;42.644;23.336;2023-04-27T01:52:56;93923.66;;;9.59;48.57
1472;BME280;963;42.644;23.336;2023-04-27T01:55:21;93913.00;;;9.49;48.29
1472;BME280;963;42.644;23.336;2023-04-27T01:57:46;93905.50;;;9.47;48.41
1472;BME280;963;42.644;23.336;2023-04-27T02:00:12;93916.16;;;9.31;49.25
1472;BME280;963;42.644;23.336;2023-04-27T02:02:38;93929.56;;;9.53;48.45
1472;BME280;963;42.644;23.336;2023-04-27T02:05:03;93915.28;;;9.50;48.41
1472;BME280;963;42.644;23.336;2023-04-27T02:07:29;93932.63;;;9.58;48.10
1472;BME280;963;42.644;23.336;2023-04-27T02:09:54;93937.38;;;9.49;48.38
1472;BME280;963;42.644;23.336;2023-04-27T02:12:20;93925.28;;;9.41;48.26
1472;BME280;963;42.644;23.336;2023-04-27T02:14:45;93922.97;;;9.36;48.52
1472;BME280;963;42.644;23.336;2023-04-27T02:17:11;93925.22;;;9.37;48.32
1472;BME280;963;42.644;23.336;2023-04-27T02:19:36;93936.75;;;9.29;49.17
1472;BME280;963;42.644;23.336;2023-04-27T02:22:02;93933.06;;;9.34;48.67
1472;BME280;963;42.644;23.336;2023-04-27T02:24:28;93951.66;;;9.25;48.95
1472;BME280;963;42.644;23.336;2023-04-27T02:26:54;93928.78;;;9.26;48.90
1472;BME280;963;42.644;23.336;2023-04-27T02:29:19;93922.44;;;9.27;48.28
1472;BME280;963;42.644;23.336;2023-04-27T02:31:45;93942.31;;;9.28;48.92
1472;BME280;963;42.644;23.336;2023-04-27T02:34:10;93966.06;;;9.35;48.54
1472;BME280;963;42.644;23.336;2023-04-27T02:36:36;93924.03;;;9.31;48.50
1472;BME280;963;42.644;23.336;2023-04-27T02:39:01;93927.06;;;9.33;48.53
1472;BME280;963;42.644;23.336;2023-04-27T02:41:30;93920.91;;;9.26;48.80
1472;BME280;963;42.644;23.336;2023-04-27T02:43:56;93938.34;;;9.37;48.48
1472;BME280;963;42.644;23.336;2023-04-27T02:46:21;93927.06;;;9.33;47.93
1472;BME280;963;42.644;23.336;2023-04-27T02:48:47;93925.31;;;9.18;48.42
1472;BME280;963;42.644;23.336;2023-04-27T02:51:12;93945.66;;;9.25;48.21
1472;BME280;963;42.644;23.336;2023-04-27T02:53:38;93922.03;;;9.25;48.54
1472;BME280;963;42.644;23.336;2023-04-27T02:56:04;93920.00;;;9.15;48.37
1472;BME280;963;42.644;23.336;2023-04-27T02:58:29;93926.38;;;9.14;48.56
1472;BME280;963;42.644;23.336;2023-04-27T03:00:55;93932.81;;;9.20;48.11
1472;BME280;963;42.644;23.336;2023-04-27T03:03:22;93911.75;;;9.13;48.28
1472;BME280;963;42.644;23.336;2023-04-27T03:05:47;93920.78;;;9.15;47.86
1472;BME280;963;42.644;23.336;2023-04-27T03:08:13;93925.09;;;9.04;48.80
1472;BME280;963;42.644;23.336;2023-04-27T03:10:38;93933.03;;;9.07;48.19
1472;BME280;963;42.644;23.336;2023-04-27T03:13:03;93933.06;;;9.11;47.91
1472;BME280;963;42.644;23.336;2023-04-27T03:15:29;93927.72;;;9.04;47.98
1472;BME280;963;42.644;23.336;2023-04-27T03:17:54;93965.94;;;9.28;48.13
1472;BME280;963;42.644;23.336;2023-04-27T03:20:20;93954.22;;;9.22;47.84
1472;BME280;963;42.644;23.336;2023-04-27T03:22:46;93951.91;;;9.17;48.54
1472;BME280;963;42.644;23.336;2023-04-27T03:25:11;93962.81;;;9.19;48.74
1472;BME280;963;42.644;23.336;2023-04-27T03:27:37;93954.19;;;9.18;48.58
1472;BME280;963;42.644;23.336;2023-04-27T03:30:03;93957.59;;;9.22;48.40
1472;BME280;963;42.644;23.336;2023-04-27T03:32:29;93952.19;;;9.12;48.21
1472;BME280;963;42.644;23.336;2023-04-27T03:34:55;93961.75;;;9.23;48.03
1472;BME280;963;42.644;23.336;2023-04-27T03:37:20;93956.41;;;9.16;48.33
1472;BME280;963;42.644;23.336;2023-04-27T03:39:46;93980.88;;;9.24;48.16
1472;BME280;963;42.644;23.336;2023-04-27T03:42:11;93958.22;;;9.12;48.13
1472;BME280;963;42.644;23.336;2023-04-27T03:44:37;93981.22;;;9.22;47.98
1472;BME280;963;42.644;23.336;2023-04-27T03:47:02;93986.41;;;9.19;48.35
1472;BME280;963;42.644;23.336;2023-04-27T03:49:36;93983.63;;;9.08;48.07
1472;BME280;963;42.644;23.336;2023-04-27T03:52:01;93980.16;;;9.27;47.64
1472;BME280;963;42.644;23.336;2023-04-27T03:54:27;93983.56;;;9.27;47.79
1472;BME280;963;42.644;23.336;2023-04-27T03:56:53;93986.81;;;9.21;47.96
1472;BME280;963;42.644;23.336;2023-04-27T03:59:18;93977.53;;;9.27;47.42
1472;BME280;963;42.644;23.336;2023-04-27T04:01:43;93976.44;;;9.28;47.13
1472;BME280;963;42.644;23.336;2023-04-27T04:04:09;93990.00;;;9.30;47.15
1472;BME280;963;42.644;23.336;2023-04-27T04:06:35;94010.84;;;9.23;47.06
1472;BME280;963;42.644;23.336;2023-04-27T04:09:00;93996.31;;;9.29;47.16
1472;BME280;963;42.644;23.336;2023-04-27T04:11:27;93989.75;;;9.16;47.53
1472;BME280;963;42.644;23.336;2023-04-27T04:13:53;93980.66;;;9.09;47.44
1472;BME280;963;42.644;23.336;2023-04-27T04:16:18;94037.69;;;9.13;46.38
1472;BME280;963;42.644;23.336;2023-04-27T04:18:43;93997.25;;;9.17;46.79
1472;BME280;963;42.644;23.336;2023-04-27T04:21:09;94003.97;;;9.15;47.36
1472;BME280;963;42.644;23.336;2023-04-27T04:23:35;94003.13;;;9.30;46.67
1472;BME280;963;42.644;23.336;2023-04-27T04:26:01;94012.75;;;9.26;47.00
1472;BME280;963;42.644;23.336;2023-04-27T04:28:27;94010.03;;;9.19;47.16
1472;BME280;963;42.644;23.336;2023-04-27T04:30:52;94007.13;;;9.24;47.25
1472;BME280;963;42.644;23.336;2023-04-27T04:33:18;94021.47;;;9.30;47.55
1472;BME280;963;42.644;23.336;2023-04-27T04:35:43;94036.88;;;9.31;46.81
1472;BME280;963;42.644;23.336;2023-04-27T04:38:09;94021.88;;;9.32;46.95
1472;BME280;963;42.644;23.336;2023-04-27T04:40:37;94019.13;;;9.25;47.07
1472;BME280;963;42.644;23.336;2023-04-27T04:43:03;94014.28;;;9.27;47.02
1472;BME280;963;42.644;23.336;2023-04-27T04:45:28;94024.31;;;9.21;46.92
1472;BME280;963;42.644;23.336;2023-04-27T04:47:54;94029.41;;;9.11;46.59
1472;BME280;963;42.644;23.336;2023-04-27T04:50:19;94035.63;;;9.25;46.53
1472;BME280;963;42.644;23.336;2023-04-27T04:52:45;94054.41;;;9.27;47.13
1472;BME280;963;42.644;23.336;2023-04-27T04:55:11;94034.88;;;9.25;47.47
1472;BME280;963;42.644;23.336;2023-04-27T04:57:36;94041.88;;;9.40;46.78
1472;BME280;963;42.644;23.336;2023-04-27T05:00:02;94048.53;;;9.34;46.59
1472;BME280;963;42.644;23.336;2023-04-27T05:02:35;94047.69;;;9.53;46.70
1472;BME280;963;42.644;23.336;2023-04-27T05:05:00;94066.53;;;9.58;45.69
1472;BME280;963;42.644;23.336;2023-04-27T05:07:26;94042.53;;;9.33;46.16
1472;BME280;963;42.644;23.336;2023-04-27T05:09:51;94065.69;;;9.51;45.99
1472;BME280;963;42.644;23.336;2023-04-27T05:12:17;94049.97;;;9.54;45.87
1472;BME280;963;42.644;23.336;2023-04-27T05:14:42;94061.69;;;9.60;45.92
1472;BME280;963;42.644;23.336;2023-04-27T05:17:08;94059.47;;;9.62;46.15
1472;BME280;963;42.644;23.336;2023-04-27T05:19:33;94069.41;;;9.73;45.97
1472;BME280;963;42.644;23.336;2023-04-27T05:21:59;94069.41;;;9.73;45.97
1472;BME280;963;42.644;23.336;2023-04-27T05:24:25;94066.44;;;9.51;46.26
1472;BME280;963;42.644;23.336;2023-04-27T05:26:50;94071.50;;;9.63;46.19
1472;BME280;963;42.644;23.336;2023-04-27T05:29:16;94070.13;;;9.69;46.37
1472;BME280;963;42.644;23.336;2023-04-27T05:31:41;94094.97;;;9.76;46.74
1472;BME280;963;42.644;23.336;2023-04-27T05:34:07;94079.22;;;9.76;46.53
1472;BME280;963;42.644;23.336;2023-04-27T05:36:34;94076.28;;;9.81;46.29
1472;BME280;963;42.644;23.336;2023-04-27T05:39:00;94082.25;;;9.78;46.21
1472;BME280;963;42.644;23.336;2023-04-27T05:41:26;94093.16;;;9.80;46.82
1472;BME280;963;42.644;23.336;2023-04-27T05:43:51;94077.78;;;9.82;46.68
1472;BME280;963;42.644;23.336;2023-04-27T05:46:17;94092.84;;;9.85;46.89
1472;BME280;963;42.644;23.336;2023-04-27T05:48:43;94072.94;;;9.84;46.64
1472;BME280;963;42.644;23.336;2023-04-27T05:51:08;94087.75;;;9.95;45.88
1472;BME280;963;42.644;23.336;2023-04-27T05:53:34;94092.25;;;9.95;45.65
1472;BME280;963;42.644;23.336;2023-04-27T05:56:00;94079.81;;;9.92;45.82
1472;BME280;963;42.644;23.336;2023-04-27T05:58:28;94085.38;;;9.87;46.41
1472;BME280;963;42.644;23.336;2023-04-27T06:00:53;94101.53;;;9.89;46.71
1472;BME280;963;42.644;23.336;2023-04-27T06:03:19;94101.94;;;9.91;47.23
1472;BME280;963;42.644;23.336;2023-04-27T06:05:45;94069.31;;;9.92;46.86
1472;BME280;963;42.644;23.336;2023-04-27T06:08:10;94072.66;;;9.89;46.77
1472;BME280;963;42.644;23.336;2023-04-27T06:10:37;94100.56;;;10.00;46.21
1472;BME280;963;42.644;23.336;2023-04-27T06:13:02;94071.94;;;9.92;46.67
1472;BME280;963;42.644;23.336;2023-04-27T06:15:28;94090.41;;;9.99;46.64
1472;BME280;963;42.644;23.336;2023-04-27T06:17:53;94088.97;;;10.01;47.01
1472;BME280;963;42.644;23.336;2023-04-27T06:20:18;94075.59;;;10.10;46.30
1472;BME280;963;42.644;23.336;2023-04-27T06:22:44;94086.28;;;9.98;46.81
1472;BME280;963;42.644;23.336;2023-04-27T06:25:11;94094.16;;;9.98;46.91
1472;BME280;963;42.644;23.336;2023-04-27T06:27:36;94091.66;;;10.05;47.04
1472;BME280;963;42.644;23.336;2023-04-27T06:30:02;94079.72;;;10.11;47.03
1472;BME280;963;42.644;23.336;2023-04-27T06:32:27;94083.25;;;9.96;47.00
1472;BME280;963;42.644;23.336;2023-04-27T06:34:53;94093.09;;;9.76;47.80
1472;BME280;963;42.644;23.336;2023-04-27T06:37:18;94078.50;;;9.79;47.88
1472;BME280;963;42.644;23.336;2023-04-27T06:39:43;94090.31;;;9.92;47.07
1472;BME280;963;42.644;23.336;2023-04-27T06:42:09;94083.16;;;9.89;47.25
1472;BME280;963;42.644;23.336;2023-04-27T06:44:35;94080.81;;;9.84;47.66
1472;BME280;963;42.644;23.336;2023-04-27T06:47:01;94080.31;;;10.01;47.09
1472;BME280;963;42.644;23.336;2023-04-27T06:49:26;94075.69;;;10.17;46.96
1472;BME280;963;42.644;23.336;2023-04-27T06:51:51;94075.09;;;10.27;46.12
1472;BME280;963;42.644;23.336;2023-04-27T06:54:17;94077.81;;;10.34;45.77
1472;BME280;963;42.644;23.336;2023-04-27T06:56:42;94069.59;;;10.40;46.38
1472;BME280;963;42.644;23.336;2023-04-27T06:59:09;94090.81;;;10.50;45.64
1472;BME280;963;42.644;23.336;2023-04-27T07:01:35;94067.53;;;10.52;46.12
1472;BME280;963;42.644;23.336;2023-04-27T07:04:01;94063.03;;;10.53;45.62
1472;BME280;963;42.644;23.336;2023-04-27T07:06:26;94084.94;;;10.64;45.94
1472;BME280;963;42.644;23.336;2023-04-27T07:08:52;94085.47;;;10.77;45.33
1472;BME280;963;42.644;23.336;2023-04-27T07:11:18;94061.47;;;10.78;45.08
1472;BME280;963;42.644;23.336;2023-04-27T07:13:43;94071.66;;;10.83;45.27
1472;BME280;963;42.644;23.336;2023-04-27T07:16:09;94071.81;;;10.98;45.06
1472;BME280;963;42.644;23.336;2023-04-27T07:18:34;94075.81;;;10.84;45.23
1472;BME280;963;42.644;23.336;2023-04-27T07:21:00;94068.06;;;10.99;45.11
1472;BME280;963;42.644;23.336;2023-04-27T07:23:26;94083.88;;;11.02;44.46
1472;BME280;963;42.644;23.336;2023-04-27T07:25:51;94077.91;;;11.05;44.36
1472;BME280;963;42.644;23.336;2023-04-27T07:28:17;94079.44;;;11.10;45.00
1472;BME280;963;42.644;23.336;2023-04-27T07:30:42;94075.84;;;11.25;44.39
1472;BME280;963;42.644;23.336;2023-04-27T07:33:08;94060.13;;;11.32;43.85
1472;BME280;963;42.644;23.336;2023-04-27T07:35:34;94088.38;;;11.39;43.79
1472;BME280;963;42.644;23.336;2023-04-27T07:38:00;94061.66;;;11.37;43.88
1472;BME280;963;42.644;23.336;2023-04-27T07:40:27;94053.75;;;11.37;43.33
1472;BME280;963;42.644;23.336;2023-04-27T07:42:52;94046.63;;;11.37;43.16
1472;BME280;963;42.644;23.336;2023-04-27T07:45:18;94068.53;;;11.48;44.05
1472;BME280;963;42.644;23.336;2023-04-27T07:47:44;94058.81;;;11.52;43.81
1472;BME280;963;42.644;23.336;2023-04-27T07:50:10;94065.63;;;11.57;43.44
1472;BME280;963;42.644;23.336;2023-04-27T07:52:38;94057.31;;;11.55;43.38
1472;BME280;963;42.644;23.336;2023-04-27T07:55:04;94052.97;;;11.77;42.89
1472;BME280;963;42.644;23.336;2023-04-27T07:57:29;94040.19;;;11.79;42.92
1472;BME280;963;42.644;23.336;2023-04-27T07:59:56;94056.50;;;11.92;42.49
1472;BME280;963;42.644;23.336;2023-04-27T08:02:21;94061.31;;;11.86;42.51
1472;BME280;963;42.644;23.336;2023-04-27T08:04:48;94049.78;;;12.01;42.45
1472;BME280;963;42.644;23.336;2023-04-27T08:07:17;94048.28;;;12.04;42.17
1472;BME280;963;42.644;23.336;2023-04-27T08:09:42;94069.63;;;11.88;42.29
1472;BME280;963;42.644;23.336;2023-04-27T08:12:08;94066.03;;;11.63;42.26
1472;BME280;963;42.644;23.336;2023-04-27T08:14:34;94074.31;;;11.65;42.46
1472;BME280;963;42.644;23.336;2023-04-27T08:17:00;94075.22;;;11.83;41.71
1472;BME280;963;42.644;23.336;2023-04-27T08:19:25;94051.16;;;11.84;41.96
1472;BME280;963;42.644;23.336;2023-04-27T08:21:50;94062.19;;;12.01;41.61
1472;BME280;963;42.644;23.336;2023-04-27T08:24:16;94062.59;;;12.06;41.39
1472;BME280;963;42.644;23.336;2023-04-27T08:26:41;94059.28;;;12.16;41.07
1472;BME280;963;42.644;23.336;2023-04-27T08:29:07;94069.09;;;12.19;41.30
1472;BME280;963;42.644;23.336;2023-04-27T08:31:32;94066.44;;;12.16;41.58
1472;BME280;963;42.644;23.336;2023-04-27T08:33:58;94059.41;;;11.83;42.25
1472;BME280;963;42.644;23.336;2023-04-27T08:36:24;94068.97;;;11.98;42.02
1472;BME280;963;42.644;23.336;2023-04-27T08:38:50;94051.34;;;11.62;42.98
1472;BME280;963;42.644;23.336;2023-04-27T08:41:25;94062.31;;;11.71;42.77
1472;BME280;963;42.644;23.336;2023-04-27T08:43:50;94051.53;;;11.86;42.60
1472;BME280;963;42.644;23.336;2023-04-27T08:46:22;94063.00;;;12.12;41.98
1472;BME280;963;42.644;23.336;2023-04-27T08:48:52;94067.19;;;12.20;42.28
1472;BME280;963;42.644;23.336;2023-04-27T08:51:18;94053.34;;;12.30;41.99
1472;BME280;963;42.644;23.336;2023-04-27T08:53:55;94060.94;;;12.42;41.11
1472;BME280;963;42.644;23.336;2023-04-27T08:56:23;94057.56;;;12.49;41.33
1472;BME280;963;42.644;23.336;2023-04-27T08:58:49;94067.38;;;12.52;41.50
1472;BME280;963;42.644;23.336;2023-04-27T09:01:15;94070.06;;;12.63;41.42
1472;BME280;963;42.644;23.336;2023-04-27T09:03:41;94061.78;;;12.64;41.05
1472;BME280;963;42.644;23.336;2023-04-27T09:06:07;94062.59;;;12.82;40.17
1472;BME280;963;42.644;23.336;2023-04-27T09:08:49;94056.59;;;12.86;40.18
1472;BME280;963;42.644;23.336;2023-04-27T09:11:26;94056.59;;;12.89;40.41
1472;BME280;963;42.644;23.336;2023-04-27T09:13:52;94047.16;;;12.84;39.64
1472;BME280;963;42.644;23.336;2023-04-27T09:16:25;94062.19;;;12.73;40.16
1472;BME280;963;42.644;23.336;2023-04-27T09:18:52;94055.84;;;12.89;40.23
1472;BME280;963;42.644;23.336;2023-04-27T09:21:28;94042.28;;;12.94;39.31
1472;BME280;963;42.644;23.336;2023-04-27T09:23:54;94037.03;;;13.01;39.43
1472;BME280;963;42.644;23.336;2023-04-27T09:26:22;94034.44;;;13.19;40.20
1472;BME280;963;42.644;23.336;2023-04-27T09:28:50;94046.94;;;13.39;39.60
1472;BME280;963;42.644;23.336;2023-04-27T09:31:16;94046.19;;;13.39;39.69
1472;BME280;963;42.644;23.336;2023-04-27T09:33:42;94049.22;;;13.52;38.45
1472;BME280;963;42.644;23.336;2023-04-27T09:36:08;94041.56;;;13.04;38.75
1472;BME280;963;42.644;23.336;2023-04-27T09:38:34;94022.66;;;12.95;39.25
1472;BME280;963;42.644;23.336;2023-04-27T09:41:00;94041.63;;;13.25;38.79
1472;BME280;963;42.644;23.336;2023-04-27T09:43:27;94030.31;;;13.35;38.54
1472;BME280;963;42.644;23.336;2023-04-27T09:45:54;94022.41;;;13.46;38.22
1472;BME280;963;42.644;23.336;2023-04-27T09:48:21;94016.75;;;13.55;37.62
1472;BME280;963;42.644;23.336;2023-04-27T09:50:48;94017.47;;;13.69;37.67
1472;BME280;963;42.644;23.336;2023-04-27T09:53:17;94020.50;;;13.71;37.87
1472;BME280;963;42.644;23.336;2023-04-27T10:06:59;94001.63;;;13.59;38.16
1472;BME280;963;42.644;23.336;2023-04-27T10:09:27;94005.81;;;13.38;38.38
1472;BME280;963;42.644;23.336;2023-04-27T10:11:54;94008.41;;;13.74;37.83
1472;BME280;963;42.644;23.336;2023-04-27T10:14:21;94009.56;;;13.87;36.15
1472;BME280;963;42.644;23.336;2023-04-27T10:16:51;94002.31;;;14.05;35.48
1472;BME280;963;42.644;23.336;2023-04-27T10:19:18;94006.47;;;14.14;36.46
1472;BME280;963;42.644;23.336;2023-04-27T10:21:55;93991.72;;;14.20;36.27
1472;BME280;963;42.644;23.336;2023-04-27T10:24:38;94001.94;;;14.21;37.17
1472;BME280;963;42.644;23.336;2023-04-27T10:27:05;94006.81;;;14.26;36.85
1472;BME280;963;42.644;23.336;2023-04-27T10:29:38;94006.41;;;14.35;36.67
1472;BME280;963;42.644;23.336;2023-04-27T10:32:09;94017.41;;;14.23;36.04
1472;BME280;963;42.644;23.336;2023-04-27T10:34:35;94002.34;;;13.98;36.46
1472;BME280;963;42.644;23.336;2023-04-27T10:37:06;94001.25;;;13.85;36.62
1472;BME280;963;42.644;23.336;2023-04-27T10:39:38;94007.63;;;13.98;36.34
1472;BME280;963;42.644;23.336;2023-04-27T10:42:04;94000.41;;;14.24;35.99
1472;BME280;963;42.644;23.336;2023-04-27T10:44:31;94004.13;;;14.37;35.84
1472;BME280;963;42.644;23.336;2023-04-27T10:47:00;93995.47;;;14.26;35.92
1472;BME280;963;42.644;23.336;2023-04-27T10:49:27;94009.06;;;14.31;36.12
1472;BME280;963;42.644;23.336;2023-04-27T10:51:53;93994.34;;;14.30;35.75
1472;BME280;963;42.644;23.336;2023-04-27T10:54:18;94015.53;;;14.20;35.70
1472;BME280;963;42.644;23.336;2023-04-27T10:56:44;94000.44;;;14.06;35.99
1472;BME280;963;42.644;23.336;2023-04-27T10:59:10;93997.00;;;14.23;35.55
1472;BME280;963;42.644;23.336;2023-04-27T11:01:36;93998.13;;;14.26;35.89
1472;BME280;963;42.644;23.336;2023-04-27T11:04:02;93999.22;;;14.39;36.46
1472;BME280;963;42.644;23.336;2023-04-27T11:06:29;93984.38;;;14.66;35.13
1472;BME280;963;42.644;23.336;2023-04-27T11:08:55;93966.13;;;14.83;34.63
1472;BME280;963;42.644;23.336;2023-04-27T11:11:21;93983.09;;;14.96;34.33
1472;BME280;963;42.644;23.336;2023-04-27T11:13:47;93990.72;;;14.87;35.02
1472;BME280;963;42.644;23.336;2023-04-27T11:16:14;93993.38;;;14.87;34.07
1472;BME280;963;42.644;23.336;2023-04-27T11:18:40;93978.97;;;14.91;34.61
1472;BME280;963;42.644;23.336;2023-04-27T11:21:11;93968.78;;;14.83;34.61
1472;BME280;963;42.644;23.336;2023-04-27T11:23:37;93988.44;;;14.92;35.12
1472;BME280;963;42.644;23.336;2023-04-27T11:26:20;93980.09;;;14.94;34.71
1472;BME280;963;42.644;23.336;2023-04-27T11:29:00;94005.78;;;15.00;34.73
1472;BME280;963;42.644;23.336;2023-04-27T11:31:27;93979.16;;;15.18;34.78
1472;BME280;963;42.644;23.336;2023-04-27T11:33:53;93997.97;;;15.38;34.85
1472;BME280;963;42.644;23.336;2023-04-27T11:36:21;94005.19;;;15.34;34.81
1472;BME280;963;42.644;23.336;2023-04-27T11:38:47;93991.50;;;15.43;35.10
1472;BME280;963;42.644;23.336;2023-04-27T11:41:13;93993.75;;;15.44;34.80
1472;BME280;963;42.644;23.336;2023-04-27T11:43:42;94004.28;;;15.51;34.72
1472;BME280;963;42.644;23.336;2023-04-27T11:46:13;94003.88;;;15.56;34.24
1472;BME280;963;42.644;23.336;2023-04-27T11:48:39;94000.09;;;15.54;34.49
1472;BME280;963;42.644;23.336;2023-04-27T11:51:09;93996.31;;;15.62;34.58
1472;BME280;963;42.644;23.336;2023-04-27T11:53:36;94002.25;;;15.73;34.15
1472;BME280;963;42.644;23.336;2023-04-27T11:56:04;94015.78;;;15.86;33.89
1472;BME280;963;42.644;23.336;2023-04-27T11:58:37;93999.84;;;15.89;33.86
1472;BME280;963;42.644;23.336;2023-04-27T12:01:03;94005.34;;;15.68;34.52
1472;BME280;963;42.644;23.336;2023-04-27T12:03:29;94009.13;;;15.67;33.75
1472;BME280;963;42.644;23.336;2023-04-27T12:05:55;94010.31;;;15.59;33.98
1472;BME280;963;42.644;23.336;2023-04-27T12:08:21;94006.16;;;15.61;33.38
1472;BME280;963;42.644;23.336;2023-04-27T12:10:47;94009.84;;;15.71;33.23
1472;BME280;963;42.644;23.336;2023-04-27T12:13:12;94015.91;;;15.72;33.46
1472;BME280;963;42.644;23.336;2023-04-27T12:15:39;94003.03;;;15.74;33.64
1472;BME280;963;42.644;23.336;2023-04-27T12:18:05;94010.66;;;15.68;34.33
1472;BME280;963;42.644;23.336;2023-04-27T12:20:31;94012.97;;;15.62;34.30
1472;BME280;963;42.644;23.336;2023-04-27T12:22:56;94035.75;;;15.49;33.78
1472;BME280;963;42.644;23.336;2023-04-27T12:25:22;94019.44;;;15.51;33.50
1472;BME280;963;42.644;23.336;2023-04-27T12:27:48;94007.84;;;15.34;33.74
1472;BME280;963;42.644;23.336;2023-04-27T12:30:13;94017.25;;;15.42;33.78
1472;BME280;963;42.644;23.336;2023-04-27T12:32:39;94026.72;;;15.40;33.85
1472;BME280;963;42.644;23.336;2023-04-27T12:35:06;94010.13;;;15.32;34.61
1472;BME280;963;42.644;23.336;2023-04-27T12:37:32;94007.75;;;15.45;34.45
1472;BME280;963;42.644;23.336;2023-04-27T12:39:57;94012.28;;;15.48;34.88
1472;BME280;963;42.644;23.336;2023-04-27T12:42:23;93996.78;;;15.43;34.30
1472;BME280;963;42.644;23.336;2023-04-27T12:44:49;94022.09;;;15.51;34.96
1472;BME280;963;42.644;23.336;2023-04-27T12:47:16;94011.59;;;15.40;35.21
1472;BME280;963;42.644;23.336;2023-04-27T12:49:42;94023.69;;;15.41;34.85
1472;BME280;963;42.644;23.336;2023-04-27T12:52:07;94030.88;;;15.41;34.39
1472;BME280;963;42.644;23.336;2023-04-27T12:54:33;94021.47;;;15.32;34.66
1472;BME280;963;42.644;23.336;2023-04-27T12:56:59;94016.66;;;15.13;34.99
1472;BME280;963;42.644;23.336;2023-04-27T12:59:28;94019.44;;;14.95;35.19
1472;BME280;963;42.644;23.336;2023-04-27T13:01:54;94033.03;;;14.97;35.10
1472;BME280;963;42.644;23.336;2023-04-27T13:04:19;94045.53;;;14.97;35.05
1472;BME280;963;42.644;23.336;2023-04-27T13:06:45;94018.69;;;14.91;35.20
1472;BME280;963;42.644;23.336;2023-04-27T13:09:11;94012.50;;;15.12;35.00
1472;BME280;963;42.644;23.336;2023-04-27T13:11:37;94002.69;;;15.09;34.58
1472;BME280;963;42.644;23.336;2023-04-27T13:14:02;94026.06;;;15.28;34.99
1472;BME280;963;42.644;23.336;2023-04-27T13:16:29;94012.03;;;15.31;34.74
1472;BME280;963;42.644;23.336;2023-04-27T13:18:54;94013.59;;;15.25;35.25
1472;BME280;963;42.644;23.336;2023-04-27T13:21:20;94027.94;;;15.31;34.67
1472;BME280;963;42.644;23.336;2023-04-27T13:23:46;94012.75;;;15.36;34.65
1472;BME280;963;42.644;23.336;2023-04-27T13:26:13;94031.16;;;14.98;34.97
1472;BME280;963;42.644;23.336;2023-04-27T13:28:38;94035.16;;;15.27;34.84
1472;BME280;963;42.644;23.336;2023-04-27T13:31:04;94023.00;;;15.33;34.44
1472;BME280;963;42.644;23.336;2023-04-27T13:33:31;94023.44;;;15.25;34.21